sensor_id;sensor_type;location;lat;lon;timestamp;P1;durP1;ratioP1;P2;durP2;ratioP2
16352;SDS011;8286;51.274;9.542;2022-12-08T00:01:13;13.77;;;8.23;;
16352;SDS011;8286;51.274;9.542;2022-12-08T00:03:41;14.37;;;7.57;;
16352;SDS011;8286;51.274;9.542;2022-12-08T00:06:11;15.13;;;8.73;;
16352;SDS011;8286;51.274;9.542;2022-12-08T00:09:02;13.50;;;7.43;;
16352;SDS011;8286;51.274;9.542;2022-12-08T00:11:47;15.33;;;8.13;;
16352;SDS011;8286;51.274;9.542;2022-12-08T00:14:15;20.57;;;9.70;;
16352;SDS011;8286;51.274;9.542;2022-12-08T00:16:43;19.63;;;9.30;;
16352;SDS011;8286;51.274;9.542;2022-12-08T00:19:09;21.47;;;8.77;;
16352;SDS011;8286;51.274;9.542;2022-12-08T00:21:36;17.10;;;10.17;;
16352;SDS011;8286;51.274;9.542;2022-12-08T00:24:03;20.33;;;9.37;;
16352;SDS011;8286;51.274;9.542;2022-12-08T00:26:29;27.00;;;10.90;;
16352;SDS011;8286;51.274;9.542;2022-12-08T00:28:56;20.20;;;10.07;;
16352;SDS011;8286;51.274;9.542;2022-12-08T00:31:23;17.23;;;9.90;;
16352;SDS011;8286;51.274;9.542;2022-12-08T00:33:51;22.27;;;10.37;;
16352;SDS011;8286;51.274;9.542;2022-12-08T00:36:17;18.57;;;10.10;;
16352;SDS011;8286;51.274;9.542;2022-12-08T00:38:44;18.87;;;10.00;;
16352;SDS011;8286;51.274;9.542;2022-12-08T00:41:12;22.03;;;10.07;;
16352;SDS011;8286;51.274;9.542;2022-12-08T00:43:40;19.30;;;9.93;;
16352;SDS011;8286;51.274;9.542;2022-12-08T00:46:07;20.33;;;10.17;;
16352;SDS011;8286;51.274;9.542;2022-12-08T00:48:34;22.90;;;10.83;;
16352;SDS011;8286;51.274;9.542;2022-12-08T00:51:02;20.97;;;11.27;;
16352;SDS011;8286;51.274;9.542;2022-12-08T00:53:29;20.10;;;10.23;;
16352;SDS011;8286;51.274;9.542;2022-12-08T00:55:56;20.33;;;10.97;;
16352;SDS011;8286;51.274;9.542;2022-12-08T00:58:22;23.17;;;11.33;;
16352;SDS011;8286;51.274;9.542;2022-12-08T01:00:49;26.23;;;10.50;;
16352;SDS011;8286;51.274;9.542;2022-12-08T01:03:15;19.83;;;10.93;;
16352;SDS011;8286;51.274;9.542;2022-12-08T01:05:42;24.17;;;11.27;;
16352;SDS011;8286;51.274;9.542;2022-12-08T01:08:10;25.40;;;11.67;;
16352;SDS011;8286;51.274;9.542;2022-12-08T01:10:37;20.20;;;10.03;;
16352;SDS011;8286;51.274;9.542;2022-12-08T01:13:04;20.30;;;10.57;;
16352;SDS011;8286;51.274;9.542;2022-12-08T01:15:30;22.17;;;10.57;;
16352;SDS011;8286;51.274;9.542;2022-12-08T01:17:57;19.67;;;9.70;;
16352;SDS011;8286;51.274;9.542;2022-12-08T01:20:23;18.53;;;10.60;;
16352;SDS011;8286;51.274;9.542;2022-12-08T01:22:50;26.43;;;11.83;;
16352;SDS011;8286;51.274;9.542;2022-12-08T01:25:18;16.50;;;9.83;;
16352;SDS011;8286;51.274;9.542;2022-12-08T01:27:45;20.37;;;9.53;;
16352;SDS011;8286;51.274;9.542;2022-12-08T01:30:12;17.30;;;9.27;;
16352;SDS011;8286;51.274;9.542;2022-12-08T01:32:39;17.60;;;9.90;;
16352;SDS011;8286;51.274;9.542;2022-12-08T01:35:06;19.23;;;10.33;;
16352;SDS011;8286;51.274;9.542;2022-12-08T01:37:33;17.57;;;9.37;;
16352;SDS011;8286;51.274;9.542;2022-12-08T01:39:59;18.33;;;10.30;;
16352;SDS011;8286;51.274;9.542;2022-12-08T01:42:27;17.93;;;9.47;;
16352;SDS011;8286;51.274;9.542;2022-12-08T01:44:57;21.37;;;9.80;;
16352;SDS011;8286;51.274;9.542;2022-12-08T01:47:26;20.33;;;9.90;;
16352;SDS011;8286;51.274;9.542;2022-12-08T01:49:56;19.23;;;10.70;;
16352;SDS011;8286;51.274;9.542;2022-12-08T01:52:24;16.70;;;9.27;;
16352;SDS011;8286;51.274;9.542;2022-12-08T01:54:53;14.20;;;8.57;;
16352;SDS011;8286;51.274;9.542;2022-12-08T01:57:22;16.37;;;8.33;;
16352;SDS011;8286;51.274;9.542;2022-12-08T01:59:53;20.73;;;8.97;;
16352;SDS011;8286;51.274;9.542;2022-12-08T02:02:22;17.20;;;9.87;;
16352;SDS011;8286;51.274;9.542;2022-12-08T02:04:49;15.30;;;8.93;;
16352;SDS011;8286;51.274;9.542;2022-12-08T02:07:16;19.40;;;8.87;;
16352;SDS011;8286;51.274;9.542;2022-12-08T02:09:43;17.17;;;9.50;;
16352;SDS011;8286;51.274;9.542;2022-12-08T02:12:10;19.33;;;9.47;;
16352;SDS011;8286;51.274;9.542;2022-12-08T02:14:37;16.73;;;8.80;;
16352;SDS011;8286;51.274;9.542;2022-12-08T02:17:08;17.00;;;8.70;;
16352;SDS011;8286;51.274;9.542;2022-12-08T02:19:48;15.80;;;9.30;;
16352;SDS011;8286;51.274;9.542;2022-12-08T02:22:38;14.77;;;7.83;;
16352;SDS011;8286;51.274;9.542;2022-12-08T02:25:09;17.17;;;8.30;;
16352;SDS011;8286;51.274;9.542;2022-12-08T02:27:41;16.17;;;8.47;;
16352;SDS011;8286;51.274;9.542;2022-12-08T02:30:20;14.40;;;7.53;;
16352;SDS011;8286;51.274;9.542;2022-12-08T02:33:07;13.03;;;7.47;;
16352;SDS011;8286;51.274;9.542;2022-12-08T02:36:05;15.17;;;8.70;;
16352;SDS011;8286;51.274;9.542;2022-12-08T02:38:43;14.30;;;7.50;;
16352;SDS011;8286;51.274;9.542;2022-12-08T02:41:17;13.13;;;7.23;;
16352;SDS011;8286;51.274;9.542;2022-12-08T02:43:46;16.50;;;7.43;;
16352;SDS011;8286;51.274;9.542;2022-12-08T02:46:15;15.43;;;7.83;;
16352;SDS011;8286;51.274;9.542;2022-12-08T02:48:47;18.10;;;7.67;;
16352;SDS011;8286;51.274;9.542;2022-12-08T02:51:16;13.53;;;7.83;;
16352;SDS011;8286;51.274;9.542;2022-12-08T02:53:42;11.40;;;6.57;;
16352;SDS011;8286;51.274;9.542;2022-12-08T02:56:13;13.77;;;6.57;;
16352;SDS011;8286;51.274;9.542;2022-12-08T02:58:49;15.13;;;7.70;;
16352;SDS011;8286;51.274;9.542;2022-12-08T03:01:31;11.50;;;6.67;;
16352;SDS011;8286;51.274;9.542;2022-12-08T03:04:15;11.10;;;6.80;;
16352;SDS011;8286;51.274;9.542;2022-12-08T03:06:47;11.03;;;7.33;;
16352;SDS011;8286;51.274;9.542;2022-12-08T03:09:17;10.60;;;6.70;;
16352;SDS011;8286;51.274;9.542;2022-12-08T03:11:51;11.67;;;7.27;;
16352;SDS011;8286;51.274;9.542;2022-12-08T03:14:20;11.80;;;7.00;;
16352;SDS011;8286;51.274;9.542;2022-12-08T03:16:48;13.00;;;7.10;;
16352;SDS011;8286;51.274;9.542;2022-12-08T03:19:19;13.03;;;7.53;;
16352;SDS011;8286;51.274;9.542;2022-12-08T03:21:49;12.97;;;7.03;;
16352;SDS011;8286;51.274;9.542;2022-12-08T03:24:17;14.77;;;6.87;;
16352;SDS011;8286;51.274;9.542;2022-12-08T03:26:46;12.43;;;7.70;;
16352;SDS011;8286;51.274;9.542;2022-12-08T03:29:15;12.07;;;7.30;;
16352;SDS011;8286;51.274;9.542;2022-12-08T03:31:43;12.43;;;7.93;;
16352;SDS011;8286;51.274;9.542;2022-12-08T03:34:13;12.27;;;6.93;;
16352;SDS011;8286;51.274;9.542;2022-12-08T03:36:43;12.57;;;7.93;;
16352;SDS011;8286;51.274;9.542;2022-12-08T03:39:10;12.30;;;6.73;;
16352;SDS011;8286;51.274;9.542;2022-12-08T03:41:37;12.90;;;7.03;;
16352;SDS011;8286;51.274;9.542;2022-12-08T03:44:04;15.40;;;7.00;;
16352;SDS011;8286;51.274;9.542;2022-12-08T03:46:31;15.40;;;8.20;;
16352;SDS011;8286;51.274;9.542;2022-12-08T03:48:57;16.57;;;8.47;;
16352;SDS011;8286;51.274;9.542;2022-12-08T03:51:24;15.83;;;7.53;;
16352;SDS011;8286;51.274;9.542;2022-12-08T03:53:52;15.20;;;7.67;;
16352;SDS011;8286;51.274;9.542;2022-12-08T03:56:23;18.27;;;8.17;;
16352;SDS011;8286;51.274;9.542;2022-12-08T03:58:52;13.90;;;8.27;;
16352;SDS011;8286;51.274;9.542;2022-12-08T04:01:19;15.70;;;7.50;;
16352;SDS011;8286;51.274;9.542;2022-12-08T04:03:46;15.63;;;8.80;;
16352;SDS011;8286;51.274;9.542;2022-12-08T04:06:13;15.63;;;7.47;;
16352;SDS011;8286;51.274;9.542;2022-12-08T04:08:40;14.90;;;8.07;;
16352;SDS011;8286;51.274;9.542;2022-12-08T04:11:08;12.63;;;7.47;;
16352;SDS011;8286;51.274;9.542;2022-12-08T04:13:38;27.40;;;9.23;;
16352;SDS011;8286;51.274;9.542;2022-12-08T04:16:05;12.10;;;7.27;;
16352;SDS011;8286;51.274;9.542;2022-12-08T04:18:33;15.73;;;8.03;;
16352;SDS011;8286;51.274;9.542;2022-12-08T04:21:00;12.17;;;7.47;;
16352;SDS011;8286;51.274;9.542;2022-12-08T04:23:27;17.93;;;8.77;;
16352;SDS011;8286;51.274;9.542;2022-12-08T04:25:53;17.03;;;8.73;;
16352;SDS011;8286;51.274;9.542;2022-12-08T04:28:22;16.53;;;8.27;;
16352;SDS011;8286;51.274;9.542;2022-12-08T04:30:48;17.33;;;8.73;;
16352;SDS011;8286;51.274;9.542;2022-12-08T04:33:15;20.47;;;9.77;;
16352;SDS011;8286;51.274;9.542;2022-12-08T04:35:42;19.33;;;8.93;;
16352;SDS011;8286;51.274;9.542;2022-12-08T04:38:09;16.93;;;8.73;;
16352;SDS011;8286;51.274;9.542;2022-12-08T04:40:35;16.47;;;9.03;;
16352;SDS011;8286;51.274;9.542;2022-12-08T04:43:02;17.83;;;8.97;;
16352;SDS011;8286;51.274;9.542;2022-12-08T04:45:30;17.50;;;9.43;;
16352;SDS011;8286;51.274;9.542;2022-12-08T04:47:57;21.97;;;9.17;;
16352;SDS011;8286;51.274;9.542;2022-12-08T04:50:24;18.47;;;9.37;;
16352;SDS011;8286;51.274;9.542;2022-12-08T04:52:51;17.83;;;9.80;;
16352;SDS011;8286;51.274;9.542;2022-12-08T04:55:17;19.93;;;9.10;;
16352;SDS011;8286;51.274;9.542;2022-12-08T04:57:44;16.53;;;9.10;;
16352;SDS011;8286;51.274;9.542;2022-12-08T05:00:12;15.87;;;8.27;;
16352;SDS011;8286;51.274;9.542;2022-12-08T05:02:40;14.23;;;8.13;;
16352;SDS011;8286;51.274;9.542;2022-12-08T05:05:07;16.53;;;8.07;;
16352;SDS011;8286;51.274;9.542;2022-12-08T05:07:34;13.97;;;8.10;;
16352;SDS011;8286;51.274;9.542;2022-12-08T05:10:01;12.73;;;7.80;;
16352;SDS011;8286;51.274;9.542;2022-12-08T05:12:28;12.83;;;7.33;;
16352;SDS011;8286;51.274;9.542;2022-12-08T05:14:55;18.20;;;8.83;;
16352;SDS011;8286;51.274;9.542;2022-12-08T05:17:21;15.03;;;7.67;;
16352;SDS011;8286;51.274;9.542;2022-12-08T05:19:49;13.93;;;7.43;;
16352;SDS011;8286;51.274;9.542;2022-12-08T05:22:16;15.87;;;8.40;;
16352;SDS011;8286;51.274;9.542;2022-12-08T05:24:42;16.33;;;9.23;;
16352;SDS011;8286;51.274;9.542;2022-12-08T05:27:09;14.10;;;7.67;;
16352;SDS011;8286;51.274;9.542;2022-12-08T05:29:36;19.17;;;9.43;;
16352;SDS011;8286;51.274;9.542;2022-12-08T05:32:02;16.17;;;8.43;;
16352;SDS011;8286;51.274;9.542;2022-12-08T05:34:29;14.40;;;8.23;;
16352;SDS011;8286;51.274;9.542;2022-12-08T05:36:57;15.67;;;8.37;;
16352;SDS011;8286;51.274;9.542;2022-12-08T05:39:24;15.53;;;7.73;;
16352;SDS011;8286;51.274;9.542;2022-12-08T05:41:51;16.57;;;8.83;;
16352;SDS011;8286;51.274;9.542;2022-12-08T05:44:18;14.40;;;8.27;;
16352;SDS011;8286;51.274;9.542;2022-12-08T05:46:44;19.20;;;9.00;;
16352;SDS011;8286;51.274;9.542;2022-12-08T05:49:11;16.67;;;8.57;;
16352;SDS011;8286;51.274;9.542;2022-12-08T05:51:38;19.40;;;9.00;;
16352;SDS011;8286;51.274;9.542;2022-12-08T05:54:06;16.43;;;8.50;;
16352;SDS011;8286;51.274;9.542;2022-12-08T05:56:32;15.90;;;8.57;;
16352;SDS011;8286;51.274;9.542;2022-12-08T05:58:59;18.07;;;8.80;;
16352;SDS011;8286;51.274;9.542;2022-12-08T06:01:26;14.13;;;7.77;;
16352;SDS011;8286;51.274;9.542;2022-12-08T06:03:55;14.70;;;7.07;;
16352;SDS011;8286;51.274;9.542;2022-12-08T06:06:23;15.10;;;8.20;;
16352;SDS011;8286;51.274;9.542;2022-12-08T06:08:50;17.97;;;8.10;;
16352;SDS011;8286;51.274;9.542;2022-12-08T06:11:19;11.43;;;7.83;;
16352;SDS011;8286;51.274;9.542;2022-12-08T06:13:47;14.30;;;7.47;;
16352;SDS011;8286;51.274;9.542;2022-12-08T06:16:14;13.03;;;7.53;;
16352;SDS011;8286;51.274;9.542;2022-12-08T06:18:41;14.67;;;7.70;;
16352;SDS011;8286;51.274;9.542;2022-12-08T06:21:08;11.10;;;6.83;;
16352;SDS011;8286;51.274;9.542;2022-12-08T06:23:36;14.13;;;7.23;;
16352;SDS011;8286;51.274;9.542;2022-12-08T06:26:04;14.27;;;7.73;;
16352;SDS011;8286;51.274;9.542;2022-12-08T06:28:34;13.97;;;6.67;;
16352;SDS011;8286;51.274;9.542;2022-12-08T06:31:05;11.83;;;7.03;;
16352;SDS011;8286;51.274;9.542;2022-12-08T06:33:32;14.10;;;7.83;;
16352;SDS011;8286;51.274;9.542;2022-12-08T06:35:59;9.93;;;6.40;;
16352;SDS011;8286;51.274;9.542;2022-12-08T06:38:26;12.13;;;7.13;;
16352;SDS011;8286;51.274;9.542;2022-12-08T06:40:53;13.40;;;7.37;;
16352;SDS011;8286;51.274;9.542;2022-12-08T06:43:20;13.07;;;7.07;;
16352;SDS011;8286;51.274;9.542;2022-12-08T06:45:48;13.53;;;6.90;;
16352;SDS011;8286;51.274;9.542;2022-12-08T06:48:15;13.83;;;7.23;;
16352;SDS011;8286;51.274;9.542;2022-12-08T06:50:42;14.93;;;7.37;;
16352;SDS011;8286;51.274;9.542;2022-12-08T06:53:10;12.47;;;7.27;;
16352;SDS011;8286;51.274;9.542;2022-12-08T06:55:37;16.83;;;7.50;;
16352;SDS011;8286;51.274;9.542;2022-12-08T06:58:08;14.10;;;6.93;;
16352;SDS011;8286;51.274;9.542;2022-12-08T07:00:35;11.60;;;6.03;;
16352;SDS011;8286;51.274;9.542;2022-12-08T07:03:03;11.27;;;6.80;;
16352;SDS011;8286;51.274;9.542;2022-12-08T07:05:30;10.10;;;6.33;;
16352;SDS011;8286;51.274;9.542;2022-12-08T07:07:57;11.70;;;5.73;;
16352;SDS011;8286;51.274;9.542;2022-12-08T07:10:23;12.50;;;7.03;;
16352;SDS011;8286;51.274;9.542;2022-12-08T07:12:50;11.40;;;6.10;;
16352;SDS011;8286;51.274;9.542;2022-12-08T07:15:17;11.90;;;6.63;;
16352;SDS011;8286;51.274;9.542;2022-12-08T07:17:44;10.70;;;5.80;;
16352;SDS011;8286;51.274;9.542;2022-12-08T07:20:12;13.40;;;5.87;;
16352;SDS011;8286;51.274;9.542;2022-12-08T07:22:39;10.57;;;5.43;;
16352;SDS011;8286;51.274;9.542;2022-12-08T07:25:06;10.13;;;6.10;;
16352;SDS011;8286;51.274;9.542;2022-12-08T07:27:33;10.70;;;6.03;;
16352;SDS011;8286;51.274;9.542;2022-12-08T07:30:00;8.60;;;5.93;;
16352;SDS011;8286;51.274;9.542;2022-12-08T07:32:27;9.37;;;5.57;;
16352;SDS011;8286;51.274;9.542;2022-12-08T07:34:53;11.43;;;5.90;;
16352;SDS011;8286;51.274;9.542;2022-12-08T07:37:21;9.27;;;5.93;;
16352;SDS011;8286;51.274;9.542;2022-12-08T07:39:48;8.13;;;5.63;;
16352;SDS011;8286;51.274;9.542;2022-12-08T07:42:15;10.23;;;5.13;;
16352;SDS011;8286;51.274;9.542;2022-12-08T07:44:41;11.00;;;6.37;;
16352;SDS011;8286;51.274;9.542;2022-12-08T07:47:08;11.23;;;6.23;;
16352;SDS011;8286;51.274;9.542;2022-12-08T07:49:35;10.97;;;6.20;;
16352;SDS011;8286;51.274;9.542;2022-12-08T07:52:02;12.63;;;5.97;;
16352;SDS011;8286;51.274;9.542;2022-12-08T07:54:30;10.37;;;5.57;;
16352;SDS011;8286;51.274;9.542;2022-12-08T07:56:56;10.57;;;6.30;;
16352;SDS011;8286;51.274;9.542;2022-12-08T07:59:23;10.17;;;6.43;;
16352;SDS011;8286;51.274;9.542;2022-12-08T08:01:50;7.80;;;5.80;;
16352;SDS011;8286;51.274;9.542;2022-12-08T08:04:17;7.93;;;5.63;;
16352;SDS011;8286;51.274;9.542;2022-12-08T08:06:44;10.27;;;5.93;;
16352;SDS011;8286;51.274;9.542;2022-12-08T08:09:10;6.93;;;5.43;;
16352;SDS011;8286;51.274;9.542;2022-12-08T08:11:38;10.90;;;5.87;;
16352;SDS011;8286;51.274;9.542;2022-12-08T08:14:05;9.30;;;4.97;;
16352;SDS011;8286;51.274;9.542;2022-12-08T08:16:32;8.50;;;4.87;;
16352;SDS011;8286;51.274;9.542;2022-12-08T08:18:59;6.97;;;4.90;;
16352;SDS011;8286;51.274;9.542;2022-12-08T08:21:25;7.40;;;4.67;;
16352;SDS011;8286;51.274;9.542;2022-12-08T08:23:52;8.30;;;5.07;;
16352;SDS011;8286;51.274;9.542;2022-12-08T08:26:19;11.17;;;5.30;;
16352;SDS011;8286;51.274;9.542;2022-12-08T08:28:47;7.37;;;5.30;;
16352;SDS011;8286;51.274;9.542;2022-12-08T08:31:14;10.67;;;5.27;;
16352;SDS011;8286;51.274;9.542;2022-12-08T08:33:40;10.50;;;5.50;;
16352;SDS011;8286;51.274;9.542;2022-12-08T08:36:07;8.70;;;4.70;;
16352;SDS011;8286;51.274;9.542;2022-12-08T08:38:35;6.97;;;4.77;;
16352;SDS011;8286;51.274;9.542;2022-12-08T08:41:06;7.47;;;5.20;;
16352;SDS011;8286;51.274;9.542;2022-12-08T08:43:33;7.83;;;4.53;;
16352;SDS011;8286;51.274;9.542;2022-12-08T08:46:02;8.80;;;4.97;;
16352;SDS011;8286;51.274;9.542;2022-12-08T08:48:30;10.03;;;5.03;;
16352;SDS011;8286;51.274;9.542;2022-12-08T08:50:58;8.90;;;5.03;;
16352;SDS011;8286;51.274;9.542;2022-12-08T08:53:31;6.60;;;4.33;;
16352;SDS011;8286;51.274;9.542;2022-12-08T08:55:58;10.67;;;4.73;;
16352;SDS011;8286;51.274;9.542;2022-12-08T08:58:25;7.87;;;4.90;;
16352;SDS011;8286;51.274;9.542;2022-12-08T09:00:51;10.67;;;5.27;;
16352;SDS011;8286;51.274;9.542;2022-12-08T09:03:19;6.20;;;4.43;;
16352;SDS011;8286;51.274;9.542;2022-12-08T09:05:46;9.37;;;4.97;;
16352;SDS011;8286;51.274;9.542;2022-12-08T09:08:13;7.93;;;4.33;;
16352;SDS011;8286;51.274;9.542;2022-12-08T09:10:39;8.50;;;4.93;;
16352;SDS011;8286;51.274;9.542;2022-12-08T09:13:06;7.40;;;4.87;;
16352;SDS011;8286;51.274;9.542;2022-12-08T09:15:33;9.67;;;4.87;;
16352;SDS011;8286;51.274;9.542;2022-12-08T09:18:00;6.10;;;4.67;;
16352;SDS011;8286;51.274;9.542;2022-12-08T09:20:28;7.83;;;5.50;;
16352;SDS011;8286;51.274;9.542;2022-12-08T09:22:55;8.83;;;5.40;;
16352;SDS011;8286;51.274;9.542;2022-12-08T09:25:21;8.53;;;5.40;;
16352;SDS011;8286;51.274;9.542;2022-12-08T09:27:48;5.90;;;4.43;;
16352;SDS011;8286;51.274;9.542;2022-12-08T09:30:15;8.93;;;5.20;;
16352;SDS011;8286;51.274;9.542;2022-12-08T09:32:42;8.90;;;5.27;;
16352;SDS011;8286;51.274;9.542;2022-12-08T09:35:09;7.47;;;5.07;;
16352;SDS011;8286;51.274;9.542;2022-12-08T09:37:37;10.10;;;5.30;;
16352;SDS011;8286;51.274;9.542;2022-12-08T09:40:04;6.80;;;4.53;;
16352;SDS011;8286;51.274;9.542;2022-12-08T09:42:32;10.57;;;5.63;;
16352;SDS011;8286;51.274;9.542;2022-12-08T09:45:04;11.83;;;5.83;;
16352;SDS011;8286;51.274;9.542;2022-12-08T09:47:34;8.87;;;4.90;;
16352;SDS011;8286;51.274;9.542;2022-12-08T09:50:04;7.33;;;4.87;;
16352;SDS011;8286;51.274;9.542;2022-12-08T09:52:34;7.73;;;5.30;;
16352;SDS011;8286;51.274;9.542;2022-12-08T09:55:10;8.20;;;5.37;;
16352;SDS011;8286;51.274;9.542;2022-12-08T09:57:39;7.67;;;5.27;;
16352;SDS011;8286;51.274;9.542;2022-12-08T10:00:09;10.30;;;5.73;;
16352;SDS011;8286;51.274;9.542;2022-12-08T10:02:37;10.20;;;6.27;;
16352;SDS011;8286;51.274;9.542;2022-12-08T10:05:04;9.70;;;6.70;;
16352;SDS011;8286;51.274;9.542;2022-12-08T10:07:35;11.07;;;4.97;;
16352;SDS011;8286;51.274;9.542;2022-12-08T10:10:11;9.03;;;5.40;;
16352;SDS011;8286;51.274;9.542;2022-12-08T10:12:45;8.87;;;5.30;;
16352;SDS011;8286;51.274;9.542;2022-12-08T10:15:25;8.77;;;5.30;;
16352;SDS011;8286;51.274;9.542;2022-12-08T10:17:56;9.87;;;5.93;;
16352;SDS011;8286;51.274;9.542;2022-12-08T10:20:28;8.83;;;5.33;;
16352;SDS011;8286;51.274;9.542;2022-12-08T10:23:03;10.70;;;5.50;;
16352;SDS011;8286;51.274;9.542;2022-12-08T10:25:33;12.03;;;5.53;;
16352;SDS011;8286;51.274;9.542;2022-12-08T10:28:02;9.47;;;6.13;;
16352;SDS011;8286;51.274;9.542;2022-12-08T10:30:29;8.87;;;5.57;;
16352;SDS011;8286;51.274;9.542;2022-12-08T10:32:57;10.93;;;6.33;;
16352;SDS011;8286;51.274;9.542;2022-12-08T10:35:23;9.80;;;6.30;;
16352;SDS011;8286;51.274;9.542;2022-12-08T10:37:53;8.67;;;5.40;;
16352;SDS011;8286;51.274;9.542;2022-12-08T10:40:22;8.60;;;5.30;;
16352;SDS011;8286;51.274;9.542;2022-12-08T10:42:51;11.37;;;5.70;;
16352;SDS011;8286;51.274;9.542;2022-12-08T10:45:22;11.73;;;6.37;;
16352;SDS011;8286;51.274;9.542;2022-12-08T10:47:57;7.43;;;5.40;;
16352;SDS011;8286;51.274;9.542;2022-12-08T10:50:29;9.03;;;6.27;;
16352;SDS011;8286;51.274;9.542;2022-12-08T10:52:58;10.13;;;6.03;;
16352;SDS011;8286;51.274;9.542;2022-12-08T10:55:27;8.93;;;5.90;;
16352;SDS011;8286;51.274;9.542;2022-12-08T10:57:54;8.80;;;5.60;;
16352;SDS011;8286;51.274;9.542;2022-12-08T11:00:22;11.67;;;6.20;;
16352;SDS011;8286;51.274;9.542;2022-12-08T11:02:51;8.87;;;5.73;;
16352;SDS011;8286;51.274;9.542;2022-12-08T11:05:21;12.60;;;6.53;;
16352;SDS011;8286;51.274;9.542;2022-12-08T11:07:51;11.43;;;6.33;;
16352;SDS011;8286;51.274;9.542;2022-12-08T11:10:20;8.67;;;5.50;;
16352;SDS011;8286;51.274;9.542;2022-12-08T11:12:57;12.90;;;6.37;;
16352;SDS011;8286;51.274;9.542;2022-12-08T11:15:25;12.70;;;5.63;;
16352;SDS011;8286;51.274;9.542;2022-12-08T11:17:58;9.53;;;5.97;;
16352;SDS011;8286;51.274;9.542;2022-12-08T11:20:27;8.47;;;5.93;;
16352;SDS011;8286;51.274;9.542;2022-12-08T11:22:54;7.40;;;4.83;;
16352;SDS011;8286;51.274;9.542;2022-12-08T11:25:22;7.83;;;5.70;;
16352;SDS011;8286;51.274;9.542;2022-12-08T11:27:51;9.67;;;5.33;;
16352;SDS011;8286;51.274;9.542;2022-12-08T11:30:20;7.13;;;4.77;;
16352;SDS011;8286;51.274;9.542;2022-12-08T11:32:49;11.17;;;5.67;;
16352;SDS011;8286;51.274;9.542;2022-12-08T11:35:20;9.23;;;5.47;;
16352;SDS011;8286;51.274;9.542;2022-12-08T11:37:49;9.10;;;5.40;;
16352;SDS011;8286;51.274;9.542;2022-12-08T11:40:16;8.70;;;4.87;;
16352;SDS011;8286;51.274;9.542;2022-12-08T11:42:49;7.83;;;5.57;;
16352;SDS011;8286;51.274;9.542;2022-12-08T11:45:21;10.60;;;4.97;;
16352;SDS011;8286;51.274;9.542;2022-12-08T11:47:51;8.93;;;5.27;;
16352;SDS011;8286;51.274;9.542;2022-12-08T11:50:26;7.57;;;5.03;;
16352;SDS011;8286;51.274;9.542;2022-12-08T11:52:55;8.30;;;5.53;;
16352;SDS011;8286;51.274;9.542;2022-12-08T11:55:28;7.63;;;5.47;;
16352;SDS011;8286;51.274;9.542;2022-12-08T11:57:57;8.47;;;4.53;;
16352;SDS011;8286;51.274;9.542;2022-12-08T12:00:29;11.10;;;4.63;;
16352;SDS011;8286;51.274;9.542;2022-12-08T12:02:57;8.23;;;4.17;;
16352;SDS011;8286;51.274;9.542;2022-12-08T12:05:28;6.60;;;4.23;;
16352;SDS011;8286;51.274;9.542;2022-12-08T12:08:02;4.60;;;3.47;;
16352;SDS011;8286;51.274;9.542;2022-12-08T12:10:38;5.57;;;3.30;;
16352;SDS011;8286;51.274;9.542;2022-12-08T12:19:04;4.77;;;3.23;;
16352;SDS011;8286;51.274;9.542;2022-12-08T12:21:32;5.97;;;3.33;;
16352;SDS011;8286;51.274;9.542;2022-12-08T12:24:02;4.27;;;3.13;;
16352;SDS011;8286;51.274;9.542;2022-12-08T12:26:31;3.47;;;2.53;;
16352;SDS011;8286;51.274;9.542;2022-12-08T12:29:03;2.67;;;2.43;;
16352;SDS011;8286;51.274;9.542;2022-12-08T12:31:31;3.10;;;2.57;;
16352;SDS011;8286;51.274;9.542;2022-12-08T12:34:03;2.93;;;2.40;;
16352;SDS011;8286;51.274;9.542;2022-12-08T12:36:42;3.30;;;2.60;;
16352;SDS011;8286;51.274;9.542;2022-12-08T12:39:11;2.53;;;2.33;;
16352;SDS011;8286;51.274;9.542;2022-12-08T12:41:41;2.27;;;2.10;;
16352;SDS011;8286;51.274;9.542;2022-12-08T12:47:10;2.27;;;2.07;;
16352;SDS011;8286;51.274;9.542;2022-12-08T12:49:51;2.17;;;1.97;;
16352;SDS011;8286;51.274;9.542;2022-12-08T12:55:24;2.30;;;2.10;;
16352;SDS011;8286;51.274;9.542;2022-12-08T13:04:28;2.50;;;2.30;;
16352;SDS011;8286;51.274;9.542;2022-12-08T13:06:56;2.37;;;2.17;;
16352;SDS011;8286;51.274;9.542;2022-12-08T13:09:26;2.97;;;2.23;;
16352;SDS011;8286;51.274;9.542;2022-12-08T13:11:57;3.20;;;2.20;;
16352;SDS011;8286;51.274;9.542;2022-12-08T13:14:26;2.23;;;1.80;;
16352;SDS011;8286;51.274;9.542;2022-12-08T13:16:57;3.80;;;1.60;;
16352;SDS011;8286;51.274;9.542;2022-12-08T13:19:25;2.17;;;1.60;;
16352;SDS011;8286;51.274;9.542;2022-12-08T13:21:58;2.37;;;1.53;;
16352;SDS011;8286;51.274;9.542;2022-12-08T13:24:32;1.83;;;1.53;;
16352;SDS011;8286;51.274;9.542;2022-12-08T13:33:07;1.10;;;1.10;;
16352;SDS011;8286;51.274;9.542;2022-12-08T13:35:39;0.93;;;0.93;;
16352;SDS011;8286;51.274;9.542;2022-12-08T13:38:10;0.97;;;0.97;;
16352;SDS011;8286;51.274;9.542;2022-12-08T13:40:39;0.83;;;0.80;;
16352;SDS011;8286;51.274;9.542;2022-12-08T13:43:09;1.00;;;1.00;;
16352;SDS011;8286;51.274;9.542;2022-12-08T13:45:40;0.90;;;0.90;;
16352;SDS011;8286;51.274;9.542;2022-12-08T13:48:09;0.97;;;0.97;;
16352;SDS011;8286;51.274;9.542;2022-12-08T13:50:40;1.50;;;1.40;;
16352;SDS011;8286;51.274;9.542;2022-12-08T13:53:10;2.20;;;1.63;;
16352;SDS011;8286;51.274;9.542;2022-12-08T13:55:41;1.90;;;1.80;;
16352;SDS011;8286;51.274;9.542;2022-12-08T13:58:14;2.23;;;1.83;;
16352;SDS011;8286;51.274;9.542;2022-12-08T14:00:42;2.10;;;1.90;;
16352;SDS011;8286;51.274;9.542;2022-12-08T14:03:19;1.87;;;1.77;;
16352;SDS011;8286;51.274;9.542;2022-12-08T14:05:47;1.93;;;1.83;;
16352;SDS011;8286;51.274;9.542;2022-12-08T14:08:17;2.13;;;1.93;;
16352;SDS011;8286;51.274;9.542;2022-12-08T14:10:45;4.23;;;1.70;;
16352;SDS011;8286;51.274;9.542;2022-12-08T14:13:13;8.80;;;3.00;;
16352;SDS011;8286;51.274;9.542;2022-12-08T14:15:40;2.27;;;2.07;;
16352;SDS011;8286;51.274;9.542;2022-12-08T14:18:20;2.40;;;2.20;;
16352;SDS011;8286;51.274;9.542;2022-12-08T14:20:58;2.10;;;1.90;;
16352;SDS011;8286;51.274;9.542;2022-12-08T14:23:26;5.70;;;1.77;;
16352;SDS011;8286;51.274;9.542;2022-12-08T14:25:53;2.93;;;2.20;;
16352;SDS011;8286;51.274;9.542;2022-12-08T14:28:20;2.17;;;2.07;;
16352;SDS011;8286;51.274;9.542;2022-12-08T14:30:47;4.07;;;2.17;;
16352;SDS011;8286;51.274;9.542;2022-12-08T14:33:15;2.20;;;2.00;;
16352;SDS011;8286;51.274;9.542;2022-12-08T14:35:42;2.43;;;2.23;;
16352;SDS011;8286;51.274;9.542;2022-12-08T14:38:17;2.30;;;2.20;;
16352;SDS011;8286;51.274;9.542;2022-12-08T14:40:45;2.40;;;2.20;;
16352;SDS011;8286;51.274;9.542;2022-12-08T14:43:14;6.10;;;2.33;;
16352;SDS011;8286;51.274;9.542;2022-12-08T14:45:47;2.73;;;2.10;;
16352;SDS011;8286;51.274;9.542;2022-12-08T14:48:17;4.30;;;2.93;;
16352;SDS011;8286;51.274;9.542;2022-12-08T14:50:53;4.63;;;3.00;;
16352;SDS011;8286;51.274;9.542;2022-12-08T14:53:28;5.97;;;3.70;;
16352;SDS011;8286;51.274;9.542;2022-12-08T14:55:56;3.60;;;3.30;;
16352;SDS011;8286;51.274;9.542;2022-12-08T14:58:25;4.03;;;3.20;;
16352;SDS011;8286;51.274;9.542;2022-12-08T15:00:54;7.60;;;3.80;;
16352;SDS011;8286;51.274;9.542;2022-12-08T15:03:22;6.43;;;3.60;;
16352;SDS011;8286;51.274;9.542;2022-12-08T15:05:50;4.47;;;3.57;;
16352;SDS011;8286;51.274;9.542;2022-12-08T15:08:18;6.53;;;4.13;;
16352;SDS011;8286;51.274;9.542;2022-12-08T15:10:46;5.57;;;3.97;;
16352;SDS011;8286;51.274;9.542;2022-12-08T15:13:20;2.70;;;2.50;;
16352;SDS011;8286;51.274;9.542;2022-12-08T15:15:48;10.23;;;9.30;;
16352;SDS011;8286;51.274;9.542;2022-12-08T15:18:16;7.27;;;6.60;;
16352;SDS011;8286;51.274;9.542;2022-12-08T15:20:44;3.43;;;3.07;;
16352;SDS011;8286;51.274;9.542;2022-12-08T15:23:23;3.43;;;3.13;;
16352;SDS011;8286;51.274;9.542;2022-12-08T15:25:53;3.20;;;2.90;;
16352;SDS011;8286;51.274;9.542;2022-12-08T15:28:21;4.93;;;3.80;;